Time;durP1;ratioP1;P1;durP2;ratioP2;P2;SDS_P1;SDS_P2;PMS_P1;PMS_P2;Temp;Humidity;BMP_temperature;BMP_pressure;BME280_temperature;BME280_humidity;BME280_pressure;Samples;Min_cycle;Max_cycle;Signal;HPM_P1;HPM_P2
2022/05/29 00:01:28;;;;;;;2.57;1.60;;;;;;;10.83;55.29;95384.09;5011635;28;20198;-79
2022/05/29 00:03:54;;;;;;;3.10;1.10;;;;;;;10.90;55.12;95382.50;5010782;28;20554;-79
2022/05/29 00:06:19;;;;;;;4.40;1.57;;;;;;;10.81;54.80;95375.66;5011166;28;20232;-79
2022/05/29 00:08:44;;;;;;;3.50;1.27;;;;;;;10.78;55.27;95381.16;5012241;28;20242;-79
2022/05/29 00:11:13;;;;;;;3.80;1.70;;;;;;;10.77;56.04;95376.91;4994715;28;20190;-78
2022/05/29 00:13:39;;;;;;;2.97;1.30;;;;;;;10.75;56.37;95368.44;5027850;28;20180;-77
2022/05/29 00:16:04;;;;;;;2.17;1.20;;;;;;;10.77;55.57;95369.91;5010507;28;20183;-79
2022/05/29 00:18:30;;;;;;;5.87;1.50;;;;;;;10.66;56.95;95365.00;5013493;28;20175;-79
2022/05/29 00:20:56;;;;;;;5.83;1.53;;;;;;;10.64;56.56;95366.13;5002942;28;20176;-79
2022/05/29 00:23:22;;;;;;;3.60;1.70;;;;;;;10.63;56.40;95365.31;4978302;28;20179;-78
2022/05/29 00:25:51;;;;;;;4.97;1.37;;;;;;;10.59;56.59;95366.56;4978045;28;20209;-79
2022/05/29 00:28:17;;;;;;;3.00;1.40;;;;;;;10.52;56.79;95364.75;5011773;28;20304;-78
2022/05/29 00:30:42;;;;;;;2.43;1.40;;;;;;;10.53;56.93;95355.97;5011459;28;20358;-78
2022/05/29 00:33:08;;;;;;;4.47;1.50;;;;;;;10.42;58.11;95363.06;5014237;28;20170;-79
2022/05/29 00:35:34;;;;;;;4.73;1.57;;;;;;;10.49;57.66;95361.47;4996995;28;20261;-77
2022/05/29 00:38:00;;;;;;;3.40;1.30;;;;;;;10.45;57.27;95360.16;5014065;28;20376;-78
2022/05/29 00:40:30;;;;;;;2.90;1.50;;;;;;;10.37;57.66;95354.06;5014204;28;20274;-78
2022/05/29 00:42:56;;;;;;;3.03;1.50;;;;;;;10.38;57.75;95353.09;4997704;28;20182;-78
2022/05/29 00:45:22;;;;;;;5.93;1.50;;;;;;;10.32;57.98;95351.09;5013523;28;20175;-78
2022/05/29 00:47:48;;;;;;;3.40;1.30;;;;;;;10.30;58.58;95346.06;4997493;28;20206;-79
2022/05/29 00:50:17;;;;;;;6.10;2.27;;;;;;;10.34;59.24;95346.59;5013986;28;20193;-78
2022/05/29 00:52:42;;;;;;;5.03;1.50;;;;;;;10.33;58.97;95342.34;4997216;28;20675;-76
2022/05/29 00:55:16;;;;;;;1.97;1.30;;;;;;;10.32;59.26;95341.53;5013242;28;20182;-79
2022/05/29 00:57:45;;;;;;;3.83;1.50;;;;;;;10.38;58.99;95338.34;5030067;28;20291;-79
2022/05/29 01:00:14;;;;;;;4.97;1.67;;;;;;;10.26;58.84;95336.97;5013778;28;20251;-78
2022/05/29 01:02:40;;;;;;;3.30;1.50;;;;;;;10.36;59.05;95334.28;5030229;28;20185;-78
2022/05/29 01:05:07;;;;;;;3.83;1.43;;;;;;;10.34;58.36;95333.63;5012910;28;20182;-79
2022/05/29 01:07:33;;;;;;;4.67;1.27;;;;;;;10.36;58.65;95336.88;5046071;28;20202;-79
2022/05/29 01:09:59;;;;;;;4.53;1.30;;;;;;;10.36;58.48;95339.47;5013451;28;20581;-78
2022/05/29 01:12:49;;;;;;;1.50;1.20;;;;;;;10.33;58.11;95337.97;4996852;28;20189;-78
2022/05/29 01:15:33;;;;;;;5.87;1.30;;;;;;;10.26;58.05;95330.97;5029010;28;20644;-79
2022/05/29 01:18:11;;;;;;;2.90;1.50;;;;;;;10.24;58.78;95328.50;5046184;28;20182;-78
2022/05/29 01:20:58;;;;;;;3.83;1.40;;;;;;;10.28;58.53;95324.66;5031054;28;20194;-78
2022/05/29 01:23:48;;;;;;;2.67;1.40;;;;;;;10.25;58.08;95324.97;5011355;28;20577;-78
2022/05/29 01:27:01;;;;;;;3.43;1.40;;;;;;;10.26;58.16;95315.41;4993403;28;20203;-78
2022/05/29 01:29:54;;;;;;;3.07;1.40;;;;;;;10.21;58.95;95323.59;4988023;28;20218;-78
2022/05/29 01:32:34;;;;;;;5.50;1.40;;;;;;;10.11;60.13;95315.91;4993533;28;20180;-79
2022/05/29 01:35:06;;;;;;;5.97;1.30;;;;;;;10.16;60.41;95311.09;5010498;28;20573;-78
2022/05/29 01:37:37;;;;;;;2.60;1.33;;;;;;;10.12;61.10;95312.31;5026306;28;20199;-79
2022/05/29 01:40:09;;;;;;;2.03;1.10;;;;;;;10.11;61.25;95307.28;4993793;28;20190;-79
2022/05/29 01:42:36;;;;;;;2.23;1.50;;;;;;;10.11;61.04;95302.09;5026188;28;20178;-77
2022/05/29 01:45:06;;;;;;;5.97;1.60;;;;;;;10.08;61.38;95305.00;4976564;28;20183;-79
2022/05/29 01:47:39;;;;;;;4.70;1.60;;;;;;;10.11;61.35;95296.91;5009352;28;20333;-79
2022/05/29 01:50:12;;;;;;;4.30;1.50;;;;;;;10.04;62.65;95301.88;4993173;28;20240;-78
2022/05/29 01:52:45;;;;;;;3.87;1.67;;;;;;;10.00;62.50;95299.75;4993110;28;20181;-78
2022/05/29 01:55:19;;;;;;;2.93;1.40;;;;;;;9.96;63.25;95293.22;4992435;28;20675;-79
2022/05/29 01:57:48;;;;;;;2.87;1.30;;;;;;;10.06;62.57;95291.34;4993174;28;20189;-79
2022/05/29 02:00:17;;;;;;;4.63;1.60;;;;;;;9.91;62.63;95289.31;5025808;28;20175;-78
2022/05/29 02:02:48;;;;;;;5.63;1.60;;;;;;;9.92;62.94;95283.16;4993873;28;20613;-79
2022/05/29 02:05:29;;;;;;;5.50;1.70;;;;;;;9.81;65.13;95282.59;5009189;28;20179;-79
2022/05/29 02:08:03;;;;;;;4.30;1.30;;;;;;;9.81;64.92;95274.81;5011329;28;20193;-79
2022/05/29 02:10:38;;;;;;;6.83;1.70;;;;;;;9.81;65.70;95267.84;5026642;28;20178;-79
2022/05/29 02:13:14;;;;;;;3.53;2.17;;;;;;;9.68;65.14;95269.97;5026603;28;20194;-78
2022/05/29 02:15:47;;;;;;;3.30;1.60;;;;;;;9.71;65.20;95264.47;4993480;28;20178;-80
2022/05/29 02:18:18;;;;;;;5.07;1.60;;;;;;;9.73;65.06;95265.19;4993814;28;20946;-80
2022/05/29 02:20:48;;;;;;;7.83;2.33;;;;;;;9.55;62.73;95248.81;4996681;28;20260;-78
2022/05/29 02:23:21;;;;;;;2.97;1.83;;;;;;;9.57;64.40;95257.25;4995966;28;20175;-78
2022/05/29 02:25:47;;;;;;;4.53;1.57;;;;;;;9.55;63.04;95257.41;4980355;28;20657;-78
2022/05/29 02:28:20;;;;;;;2.00;1.40;;;;;;;9.39;62.99;95248.66;4980751;28;20640;-79
2022/05/29 02:31:04;;;;;;;5.50;1.53;;;;;;;9.47;63.58;95249.53;4997135;28;20622;-79
2022/05/29 02:33:40;;;;;;;3.87;1.73;;;;;;;9.59;63.95;95252.72;4996869;28;20690;-79
2022/05/29 02:36:30;;;;;;;4.57;1.80;;;;;;;9.59;63.78;95244.94;5029467;28;20183;-79
2022/05/29 02:39:15;;;;;;;7.77;1.70;;;;;;;9.53;64.18;95245.53;4996887;28;20167;-80
2022/05/29 02:42:06;;;;;;;5.50;1.83;;;;;;;9.46;64.52;95240.16;4997030;28;20206;-78
2022/05/29 02:44:35;;;;;;;6.63;2.00;;;;;;;9.34;65.75;95234.34;5005088;28;20159;-77
2022/05/29 02:47:26;;;;;;;7.63;1.67;;;;;;;9.24;66.78;95230.19;5022533;28;20175;-78
2022/05/29 02:50:02;;;;;;;6.03;1.70;;;;;;;9.25;66.63;95227.47;5038963;28;20187;-77
2022/05/29 02:52:28;;;;;;;4.87;1.77;;;;;;;9.19;66.51;95228.06;5022662;28;20175;-76
2022/05/29 02:54:55;;;;;;;3.13;1.50;;;;;;;9.25;66.55;95222.28;5026512;28;20238;-77
2022/05/29 02:57:20;;;;;;;4.60;1.70;;;;;;;9.21;67.43;95226.13;5035847;28;20267;-78
2022/05/29 02:59:49;;;;;;;5.17;2.33;;;;;;;9.17;67.47;95223.97;5008408;28;20175;-78
2022/05/29 03:02:35;;;;;;;7.10;1.87;;;;;;;9.14;67.98;95222.50;4999823;28;20179;-78
2022/05/29 03:05:11;;;;;;;5.20;2.33;;;;;;;9.16;68.21;95222.34;4997030;28;20167;-79
2022/05/29 03:08:08;;;;;;;6.37;1.70;;;;;;;9.15;68.49;95218.13;4996992;28;20692;-77
2022/05/29 03:10:38;;;;;;;5.67;1.77;;;;;;;9.17;69.10;95221.38;5014414;28;20581;-80
2022/05/29 03:13:11;;;;;;;3.50;1.83;;;;;;;9.12;68.90;95218.44;4997131;28;20542;-80
2022/05/29 03:16:08;;;;;;;3.93;2.10;;;;;;;9.10;69.76;95218.59;4996020;28;20526;-80
2022/05/29 03:18:56;;;;;;;4.07;1.90;;;;;;;9.11;70.74;95222.00;4996541;28;20267;-80
2022/05/29 03:21:24;;;;;;;6.33;1.87;;;;;;;9.09;70.42;95215.16;4980739;28;20171;-77
2022/05/29 03:24:13;;;;;;;3.60;1.87;;;;;;;9.14;70.35;95217.31;5012085;28;20195;-77
2022/05/29 03:26:48;;;;;;;6.77;2.17;;;;;;;9.06;70.80;95219.81;4996100;28;20275;-77
2022/05/29 03:29:26;;;;;;;5.83;1.80;;;;;;;9.05;69.78;95218.19;4995964;28;20249;-78
2022/05/29 03:31:51;;;;;;;4.13;2.40;;;;;;;9.03;69.63;95215.75;4996074;28;20178;-78
2022/05/29 03:34:17;;;;;;;5.07;2.03;;;;;;;9.07;69.62;95224.03;4995490;28;20720;-77
2022/05/29 03:36:49;;;;;;;4.60;1.87;;;;;;;8.99;69.21;95222.16;5013248;28;20207;-78
2022/05/29 03:39:15;;;;;;;5.17;2.30;;;;;;;9.07;69.27;95221.44;5028404;28;20319;-78
2022/05/29 03:41:44;;;;;;;3.93;1.90;;;;;;;9.05;69.33;95216.41;5013140;28;20218;-78
2022/05/29 03:44:14;;;;;;;3.30;2.10;;;;;;;9.09;69.64;95219.50;4994866;28;20183;-78
2022/05/29 03:46:39;;;;;;;5.03;2.00;;;;;;;9.09;69.35;95217.75;4995464;28;20191;-78
2022/05/29 03:49:09;;;;;;;3.17;2.10;;;;;;;9.15;69.34;95218.13;4995360;28;20203;-77
2022/05/29 03:51:35;;;;;;;5.00;2.10;;;;;;;9.09;69.23;95219.50;5028133;28;20179;-78
2022/05/29 03:54:00;;;;;;;5.53;1.90;;;;;;;9.02;69.05;95215.91;5011360;28;20190;-77
2022/05/29 03:56:26;;;;;;;6.77;2.27;;;;;;;9.04;69.08;95214.78;4995324;28;20195;-78
2022/05/29 03:58:51;;;;;;;5.00;2.20;;;;;;;9.08;69.14;95212.72;4995280;28;20175;-77
2022/05/29 04:01:16;;;;;;;3.87;1.90;;;;;;;9.08;68.60;95215.28;4978947;28;20187;-78
2022/05/29 04:03:42;;;;;;;3.67;1.93;;;;;;;9.03;68.37;95217.53;4995082;28;20543;-78
2022/05/29 04:06:07;;;;;;;4.40;2.03;;;;;;;9.11;67.94;95217.63;4978470;28;20191;-78
2022/05/29 04:14:01;;;;;;;6.23;2.23;;;;;;;9.33;66.78;95219.75;4997442;28;20190;-79
2022/05/29 04:16:27;;;;;;;7.07;2.73;;;;;;;9.34;66.93;95216.22;4995101;28;20198;-79
2022/05/29 04:18:52;;;;;;;5.93;2.50;;;;;;;9.39;67.41;95209.78;5012485;28;20178;-79
2022/05/29 04:21:17;;;;;;;8.17;2.53;;;;;;;9.25;67.02;95209.31;4995239;28;20183;-79
2022/05/29 04:23:42;;;;;;;3.97;2.43;;;;;;;9.32;67.17;95212.97;5011018;28;20184;-79
2022/05/29 04:26:08;;;;;;;6.67;2.70;;;;;;;9.17;66.65;95216.19;5010829;28;20730;-79
2022/05/29 04:28:33;;;;;;;5.37;2.13;;;;;;;9.30;66.45;95211.47;4994712;28;20294;-79
2022/05/29 04:30:58;;;;;;;4.93;1.90;;;;;;;9.43;65.74;95213.69;4978481;28;20274;-79
2022/05/29 04:33:24;;;;;;;5.23;1.60;;;;;;;9.43;65.01;95214.50;4994732;28;20671;-79
2022/05/29 04:35:51;;;;;;;6.07;2.60;;;;;;;9.45;65.73;95211.75;4994226;28;20171;-79
2022/05/29 04:38:17;;;;;;;3.63;2.00;;;;;;;9.36;66.21;95211.72;4993933;28;20194;-77
2022/05/29 04:40:43;;;;;;;7.00;2.30;;;;;;;9.37;66.10;95212.53;4993952;28;20613;-77
2022/05/29 04:43:10;;;;;;;3.40;1.80;;;;;;;9.26;66.36;95213.53;4993266;28;20191;-77
2022/05/29 04:45:38;;;;;;;6.07;1.87;;;;;;;9.25;67.28;95221.47;5026036;28;20229;-76
2022/05/29 04:48:03;;;;;;;5.23;2.27;;;;;;;9.19;67.94;95217.69;4993831;28;20230;-77
2022/05/29 04:50:28;;;;;;;5.10;2.97;;;;;;;9.12;68.70;95224.44;4994096;28;20215;-76
2022/05/29 04:52:54;;;;;;;6.57;4.77;;;;;;;9.16;68.92;95219.75;4993874;28;20199;-77
2022/05/29 04:55:19;;;;;;;9.07;4.37;;;;;;;9.06;68.53;95223.22;4993254;28;20186;-77
2022/05/29 04:57:45;;;;;;;9.03;5.53;;;;;;;9.23;68.78;95229.38;4993660;28;20202;-76
2022/05/29 05:00:10;;;;;;;8.60;4.73;;;;;;;9.34;69.04;95217.97;5011215;28;20194;-77
2022/05/29 05:02:36;;;;;;;4.97;3.43;;;;;;;9.35;69.51;95217.03;4993498;28;20741;-78
2022/05/29 05:05:02;;;;;;;5.27;3.07;;;;;;;9.32;69.13;95215.53;5010594;28;20179;-77
2022/05/29 05:07:27;;;;;;;6.13;2.37;;;;;;;9.44;68.81;95223.09;5009758;28;20203;-76
2022/05/29 05:09:52;;;;;;;6.57;2.07;;;;;;;9.50;69.00;95219.91;4993574;28;20297;-77
2022/05/29 05:12:18;;;;;;;4.33;2.10;;;;;;;9.72;67.93;95216.88;5011009;28;20314;-77
2022/05/29 05:14:43;;;;;;;5.87;2.67;;;;;;;9.80;68.33;95223.88;4992458;28;20187;-77
2022/05/29 05:17:08;;;;;;;8.13;2.33;;;;;;;9.75;67.81;95224.34;4992983;28;20288;-77
2022/05/29 05:19:34;;;;;;;5.20;2.10;;;;;;;10.21;66.63;95219.78;4993266;28;20183;-78
2022/05/29 05:22:03;;;;;;;4.13;1.90;;;;;;;13.50;56.16;95222.06;4993267;28;20601;-77
2022/05/29 05:24:28;;;;;;;4.77;2.10;;;;;;;16.14;47.64;95229.97;5009393;28;20195;-78
2022/05/29 05:26:54;;;;;;;7.07;2.23;;;;;;;15.00;49.11;95221.16;4993548;28;20211;-78
2022/05/29 05:29:20;;;;;;;6.57;1.90;;;;;;;13.73;52.42;95214.25;4998908;28;20203;-77
2022/05/29 05:31:45;;;;;;;5.57;2.07;;;;;;;14.29;51.95;95215.53;5045795;28;20183;-77
2022/05/29 05:34:10;;;;;;;4.70;1.97;;;;;;;13.40;53.66;95216.25;5009285;28;20179;-77
2022/05/29 05:36:36;;;;;;;4.43;2.13;;;;;;;13.55;52.79;95217.94;5004717;28;20229;-78
2022/05/29 05:39:01;;;;;;;3.60;1.90;;;;;;;14.68;48.79;95209.28;5005261;28;20175;-78
2022/05/29 05:41:26;;;;;;;5.67;2.23;;;;;;;16.01;45.99;95209.75;5000259;28;20233;-78
2022/05/29 05:43:52;;;;;;;5.43;2.20;;;;;;;15.19;49.30;95210.09;5012346;28;20178;-78
2022/05/29 05:46:17;;;;;;;3.92;1.67;;;;;;;17.53;42.45;95207.94;5011848;28;20175;-78
2022/05/29 05:48:43;;;;;;;5.38;1.73;;;;;;;17.21;42.06;95208.66;4977538;28;20739;-77
2022/05/29 05:51:09;;;;;;;3.90;2.35;;;;;;;15.27;47.43;95214.41;4993525;28;20183;-78
2022/05/29 05:53:36;;;;;;;4.43;1.80;;;;;;;14.28;49.20;95218.31;5010439;28;20183;-76
2022/05/29 05:56:06;;;;;;;6.70;2.03;;;;;;;13.58;51.97;95216.78;4993363;28;20180;-79
2022/05/29 05:58:32;;;;;;;4.87;1.77;;;;;;;12.61;55.03;95216.28;5028194;28;20175;-76
2022/05/29 06:00:57;;;;;;;5.87;2.30;;;;;;;11.67;59.21;95214.28;4995209;28;20232;-75
2022/05/29 06:03:22;;;;;;;7.10;2.60;;;;;;;11.26;61.38;95210.81;4994931;28;20186;-77
2022/05/29 06:05:48;;;;;;;5.20;2.20;;;;;;;11.05;63.14;95217.28;4994386;28;20191;-77
2022/05/29 06:08:13;;;;;;;5.47;2.00;;;;;;;10.98;63.71;95213.69;5011197;28;20238;-76
2022/05/29 06:10:39;;;;;;;4.20;2.00;;;;;;;10.96;63.37;95217.41;5027776;28;20273;-77
2022/05/29 06:13:06;;;;;;;6.70;2.27;;;;;;;10.39;65.31;95210.19;5010618;28;20186;-77
2022/05/29 06:15:32;;;;;;;4.37;1.90;;;;;;;9.83;68.00;95214.03;4992610;28;20194;-77
2022/05/29 06:17:57;;;;;;;4.67;2.20;;;;;;;9.96;68.98;95218.00;5010724;28;20286;-77
2022/05/29 06:20:24;;;;;;;6.17;1.83;;;;;;;9.70;69.63;95220.56;5011027;28;20266;-77
2022/05/29 06:22:49;;;;;;;3.83;1.60;;;;;;;9.81;68.33;95218.56;4976189;28;20553;-78
2022/05/29 06:25:15;;;;;;;5.13;2.33;;;;;;;9.46;71.85;95223.78;4992660;28;20269;-78
2022/05/29 06:27:43;;;;;;;4.63;2.20;;;;;;;9.21;75.50;95227.91;4993518;28;20203;-78
2022/05/29 06:30:10;;;;;;;6.60;2.40;;;;;;;9.58;75.84;95233.75;5010489;28;20245;-78
2022/05/29 06:32:36;;;;;;;8.10;2.50;;;;;;;9.45;77.31;95232.50;4993587;28;20237;-77
2022/05/29 06:35:03;;;;;;;6.77;2.87;;;;;;;9.48;79.16;95232.22;4992497;28;20219;-79
2022/05/29 06:37:29;;;;;;;6.97;2.77;;;;;;;9.44;79.32;95231.69;5009380;28;20747;-79
2022/05/29 06:39:55;;;;;;;7.37;2.60;;;;;;;9.33;79.60;95245.69;4992932;28;20175;-78
2022/05/29 06:42:20;;;;;;;5.13;2.77;;;;;;;9.34;80.43;95236.94;5010198;28;20185;-79
2022/05/29 06:44:45;;;;;;;7.93;3.03;;;;;;;9.28;80.24;95244.50;4991915;28;20183;-80
2022/05/29 06:47:13;;;;;;;3.97;2.63;;;;;;;8.78;79.21;95243.16;5025636;28;20739;-79
2022/05/29 06:49:38;;;;;;;6.07;3.07;;;;;;;9.12;80.87;95246.94;4976378;28;20207;-80
2022/05/29 06:52:08;;;;;;;6.20;3.30;;;;;;;9.34;79.78;95243.91;4992654;28;20209;-79
2022/05/29 06:54:34;;;;;;;10.50;3.13;;;;;;;9.54;79.25;95247.16;5025100;28;20197;-79
2022/05/29 06:56:59;;;;;;;4.90;3.00;;;;;;;9.50;80.38;95256.19;4993018;28;20329;-79
2022/05/29 06:59:24;;;;;;;8.43;3.00;;;;;;;9.32;81.33;95259.59;4992850;28;20183;-80
2022/05/29 07:07:18;;;;;;;10.03;3.00;;;;;;;9.64;80.49;95258.28;5004247;28;20220;-80
2022/05/29 07:09:43;;;;;;;6.53;2.60;;;;;;;9.75;80.10;95265.00;5017087;28;20203;-79
2022/05/29 07:12:10;;;;;;;8.17;3.50;;;;;;;9.60;80.77;95262.13;4998004;28;20197;-80
2022/05/29 07:14:37;;;;;;;7.37;3.20;;;;;;;9.64;80.13;95264.28;4997902;28;20199;-79
2022/05/29 07:17:03;;;;;;;6.90;2.83;;;;;;;9.76;79.68;95262.28;4981156;28;20235;-79
2022/05/29 07:19:28;;;;;;;7.93;3.67;;;;;;;9.83;79.67;95260.72;4997040;28;20218;-80
2022/05/29 07:21:57;;;;;;;6.23;3.47;;;;;;;9.80;80.37;95268.78;4996382;28;20203;-79
2022/05/29 07:24:23;;;;;;;11.37;3.67;;;;;;;9.86;80.12;95265.59;5027600;28;20648;-79
2022/05/29 07:26:48;;;;;;;6.03;3.60;;;;;;;9.81;81.17;95261.84;4995849;28;20599;-79
2022/05/29 07:29:17;;;;;;;6.60;3.47;;;;;;;9.80;81.26;95265.38;5014592;28;20210;-79
2022/05/29 07:31:42;;;;;;;6.60;4.17;;;;;;;9.89;81.01;95270.50;4996569;28;20579;-80
2022/05/29 07:34:07;;;;;;;10.07;3.63;;;;;;;10.05;79.04;95268.97;4995423;28;20380;-78
2022/05/29 07:36:33;;;;;;;6.23;3.50;;;;;;;9.81;79.41;95272.22;4996147;28;20199;-78
2022/05/29 07:38:58;;;;;;;5.00;3.10;;;;;;;9.75;78.35;95273.59;5014225;28;20179;-78
2022/05/29 07:44:07;;;;;;;8.97;3.20;;;;;;;9.75;79.46;95265.84;5037564;28;20174;-76
2022/05/29 07:46:33;;;;;;;6.93;3.53;;;;;;;9.54;79.49;95270.47;5020946;28;20191;-76
2022/05/29 07:48:58;;;;;;;11.17;3.83;;;;;;;9.52;80.34;95270.63;5021032;28;20270;-76
2022/05/29 07:51:23;;;;;;;9.63;3.40;;;;;;;9.69;79.44;95268.19;5003165;28;20176;-76
2022/05/29 07:53:49;;;;;;;9.73;3.20;;;;;;;9.61;80.00;95274.13;5014359;28;20297;-76
2022/05/29 07:56:16;;;;;;;10.10;4.00;;;;;;;9.62;81.04;95273.97;4996037;28;20527;-78
2022/05/29 07:58:43;;;;;;;8.50;3.60;;;;;;;9.67;80.96;95270.94;5028552;28;20179;-78
2022/05/29 08:01:08;;;;;;;7.17;4.10;;;;;;;9.69;82.72;95270.78;4995086;28;20175;-77
2022/05/29 08:03:33;;;;;;;8.83;3.87;;;;;;;9.75;82.54;95281.38;4995009;28;20337;-76
2022/05/29 08:05:59;;;;;;;9.00;4.07;;;;;;;9.86;81.62;95281.16;4994674;28;20576;-79
2022/05/29 08:08:26;;;;;;;6.90;3.73;;;;;;;9.91;83.32;95280.72;5027671;28;20207;-77
2022/05/29 08:10:51;;;;;;;8.70;4.17;;;;;;;9.98;80.53;95286.09;5011737;28;20194;-77
2022/05/29 08:13:17;;;;;;;9.27;3.97;;;;;;;10.12;80.69;95282.97;4995670;28;20184;-76
2022/05/29 08:15:42;;;;;;;7.37;4.20;;;;;;;10.03;81.74;95289.88;5027836;28;20690;-79
2022/05/29 08:18:09;;;;;;;9.30;4.33;;;;;;;9.96;81.15;95288.03;4994161;28;20210;-79
2022/05/29 08:20:36;;;;;;;8.77;3.80;;;;;;;10.04;80.82;95282.91;5027764;28;20261;-78
2022/05/29 08:23:02;;;;;;;10.13;4.30;;;;;;;9.93;83.04;95281.38;4994515;28;20175;-78
2022/05/29 08:30:55;;;;;;;9.83;4.20;;;;;;;9.70;82.89;95282.78;4997350;28;20202;-79
2022/05/29 08:33:24;;;;;;;12.27;4.00;;;;;;;9.83;83.25;95284.06;4994887;28;20552;-80
2022/05/29 08:35:56;;;;;;;7.10;3.83;;;;;;;9.76;84.85;95283.00;4978154;28;20182;-79
2022/05/29 08:38:21;;;;;;;10.10;4.30;;;;;;;9.67;83.72;95280.50;5027962;28;20241;-79
2022/05/29 08:40:59;;;;;;;8.63;3.93;;;;;;;9.81;83.74;95285.19;4995550;28;20669;-79
2022/05/29 08:43:28;;;;;;;8.97;4.07;;;;;;;9.65;84.08;95291.84;5027834;28;20202;-80
2022/05/29 08:45:53;;;;;;;7.13;3.97;;;;;;;9.37;86.33;95295.44;5027331;28;20185;-80
2022/05/29 08:48:20;;;;;;;17.50;11.17;;;;;;;9.23;84.37;95295.94;4994577;28;20195;-80
2022/05/29 08:50:58;;;;;;;6.87;3.27;;;;;;;8.71;84.72;95295.63;4994612;28;20183;-79
2022/05/29 08:53:33;;;;;;;7.53;3.03;;;;;;;8.63;84.21;95287.75;4994145;28;20183;-80
2022/05/29 08:56:21;;;;;;;6.50;3.37;;;;;;;8.75;84.59;95287.47;4977686;28;20679;-80
2022/05/29 08:58:56;;;;;;;8.37;3.90;;;;;;;8.63;85.99;95287.75;4994038;28;20626;-80
2022/05/29 09:01:55;;;;;;;9.63;4.43;;;;;;;8.67;86.68;95289.94;4994391;28;20245;-80
2022/05/29 09:04:33;;;;;;;8.00;4.00;;;;;;;9.00;87.06;95285.94;4987711;28;20561;-80
2022/05/29 09:06:59;;;;;;;8.27;3.60;;;;;;;9.07;86.56;95287.00;4993869;28;20198;-80
2022/05/29 09:09:36;;;;;;;8.63;4.23;;;;;;;9.17;86.71;95286.97;4994080;28;20211;-80
2022/05/29 09:12:08;;;;;;;6.57;3.57;;;;;;;9.08;85.53;95290.41;4994116;28;20181;-79
2022/05/29 09:14:58;;;;;;;5.40;3.10;;;;;;;8.65;83.37;95291.84;4993306;28;20194;-79
2022/05/29 09:17:37;;;;;;;3.90;2.60;;;;;;;8.58;83.46;95288.19;5011204;28;20215;-80
2022/05/29 09:20:07;;;;;;;3.70;2.20;;;;;;;8.42;82.53;95286.19;4994111;28;20186;-79
2022/05/29 09:22:36;;;;;;;5.23;2.50;;;;;;;8.29;84.86;95282.25;5009906;28;20179;-80
2022/05/29 09:25:29;;;;;;;4.27;2.33;;;;;;;8.67;84.91;95282.16;5025479;28;20171;-79
2022/05/29 09:27:54;;;;;;;5.27;2.30;;;;;;;8.66;82.39;95282.31;5026234;28;20715;-79
2022/05/29 09:30:19;;;;;;;2.43;2.10;;;;;;;8.84;81.88;95285.78;4993731;28;20203;-79
2022/05/29 09:32:55;;;;;;;2.33;1.80;;;;;;;9.29;80.10;95287.59;4977290;28;20682;-79
2022/05/29 09:35:29;;;;;;;2.57;1.90;;;;;;;9.36;80.92;95286.03;5026016;28;20600;-80
2022/05/29 09:37:59;;;;;;;3.63;1.43;;;;;;;9.65;76.01;95288.44;4977505;28;20199;-80
2022/05/29 09:40:33;;;;;;;2.93;1.50;;;;;;;9.52;75.66;95293.16;5026659;28;20561;-80
2022/05/29 09:43:12;;;;;;;1.70;1.30;;;;;;;9.41;74.44;95288.19;4993801;28;20171;-79
2022/05/29 09:45:37;;;;;;;1.27;1.00;;;;;;;9.62;73.17;95286.94;4993314;28;20183;-80
2022/05/29 09:51:08;;;;;;;4.63;2.23;;;;;;;9.40;73.98;95294.34;5024617;28;20186;-80
2022/05/29 09:53:46;;;;;;;3.40;2.03;;;;;;;9.28;75.23;95294.56;4995212;28;20180;-79
2022/05/29 09:56:12;;;;;;;2.20;1.97;;;;;;;9.38;75.38;95293.69;5003948;28;20179;-79
2022/05/29 09:58:52;;;;;;;3.40;2.90;;;;;;;9.49;76.76;95293.47;4994047;28;20183;-80
2022/05/29 10:01:36;;;;;;;3.60;3.20;;;;;;;9.70;74.49;95287.97;4977279;28;20178;-79
2022/05/29 10:04:08;;;;;;;2.27;1.60;;;;;;;9.89;74.28;95296.44;4976900;28;20266;-79
2022/05/29 10:06:42;;;;;;;4.10;1.53;;;;;;;10.10;75.28;95297.88;5025499;28;20206;-80
2022/05/29 10:09:08;;;;;;;3.23;1.37;;;;;;;10.29;74.22;95289.94;5025834;28;20207;-79
2022/05/29 10:11:33;;;;;;;1.73;1.30;;;;;;;10.20;74.05;95296.00;4993399;28;20606;-78
2022/05/29 10:14:16;;;;;;;4.30;1.60;;;;;;;10.52;74.14;95295.47;4992974;28;20210;-79
2022/05/29 10:16:42;;;;;;;2.93;1.20;;;;;;;10.14;75.44;95291.41;4993140;28;20213;-78
2022/05/29 10:19:14;;;;;;;2.50;1.30;;;;;;;10.24;75.95;95294.75;4993524;28;20184;-77
2022/05/29 10:21:46;;;;;;;2.77;1.20;;;;;;;10.24;71.97;95296.53;5026065;28;20171;-78
2022/05/29 10:24:16;;;;;;;1.23;1.10;;;;;;;10.15;72.74;95290.44;4992036;28;20175;-79
2022/05/29 10:26:48;;;;;;;1.50;1.37;;;;;;;10.16;74.77;95289.50;5009409;28;20383;-79
2022/05/29 10:29:27;;;;;;;3.47;1.40;;;;;;;10.37;74.23;95284.00;5025853;28;20795;-78
2022/05/29 10:31:53;;;;;;;1.93;1.30;;;;;;;10.35;74.82;95280.75;4993538;28;20179;-78
2022/05/29 10:34:30;;;;;;;1.93;1.73;;;;;;;10.31;74.55;95280.22;4993302;28;20641;-78
2022/05/29 10:36:56;;;;;;;1.70;1.60;;;;;;;10.28;76.46;95280.53;4993712;28;20197;-81
2022/05/29 10:39:31;;;;;;;6.57;1.60;;;;;;;10.37;77.65;95277.03;4994272;28;20256;-78
2022/05/29 10:41:58;;;;;;;3.47;1.67;;;;;;;10.53;78.03;95273.72;4997951;28;20177;-77
2022/05/29 10:44:38;;;;;;;3.23;1.50;;;;;;;10.65;77.00;95277.66;5029250;28;20211;-78
2022/05/29 10:47:07;;;;;;;2.37;1.37;;;;;;;10.92;76.93;95270.66;5013108;28;20207;-79
2022/05/29 10:49:37;;;;;;;2.60;2.10;;;;;;;11.26;77.64;95274.00;5013383;28;20947;-78
2022/05/29 10:52:08;;;;;;;1.63;1.30;;;;;;;11.61;75.85;95274.75;4996912;28;20187;-78
2022/05/29 10:54:46;;;;;;;1.97;1.03;;;;;;;12.23;71.94;95277.72;5012559;28;20179;-79
2022/05/29 10:57:46;;;;;;;1.33;1.00;;;;;;;12.56;73.29;95269.88;4996448;28;20253;-78
2022/05/29 11:00:18;;;;;;;2.83;1.80;;;;;;;12.88;64.59;95264.53;5013281;28;20199;-79
2022/05/29 11:03:19;;;;;;;6.63;2.30;;;;;;;12.49;64.82;95264.50;4996283;28;20597;-79
2022/05/29 11:06:13;;;;;;;3.13;1.77;;;;;;;12.40;67.32;95266.31;4998260;28;20175;-79
2022/05/29 11:08:57;;;;;;;4.87;2.50;;;;;;;12.77;69.05;95263.13;5013426;28;20199;-79
2022/05/29 11:11:37;;;;;;;5.00;2.30;;;;;;;12.90;67.54;95259.19;5014125;28;20175;-78
2022/05/29 11:14:12;;;;;;;3.93;1.93;;;;;;;11.61;67.69;95259.94;5011897;28;20679;-79
2022/05/29 11:16:43;;;;;;;4.37;1.77;;;;;;;11.53;69.10;95251.31;5013936;28;20198;-80
2022/05/29 11:19:27;;;;;;;4.13;1.63;;;;;;;11.49;64.50;95253.44;5012084;28;20580;-78
2022/05/29 11:22:13;;;;;;;3.03;1.83;;;;;;;12.12;65.91;95241.63;5012146;28;20660;-79
2022/05/29 11:24:45;;;;;;;5.40;1.90;;;;;;;12.84;65.95;95241.63;5012479;28;20695;-79
2022/05/29 11:27:13;;;;;;;2.53;1.73;;;;;;;13.58;62.69;95246.28;4995595;28;20214;-79
2022/05/29 11:29:48;;;;;;;4.40;1.90;;;;;;;12.90;63.48;95238.34;4995611;28;20586;-78
2022/05/29 11:32:22;;;;;;;3.83;1.70;;;;;;;12.76;64.28;95227.63;5013296;28;20494;-79
2022/05/29 11:35:09;;;;;;;3.63;1.80;;;;;;;13.53;63.46;95232.97;4994990;28;20171;-79
2022/05/29 11:37:53;;;;;;;3.90;1.73;;;;;;;13.04;62.06;95227.19;4979295;28;20195;-79
2022/05/29 11:40:25;;;;;;;4.50;2.40;;;;;;;12.28;62.20;95225.16;4979501;28;20755;-78
2022/05/29 11:42:55;;;;;;;3.50;1.50;;;;;;;12.72;56.98;95221.16;4995344;28;20675;-78
2022/05/29 11:52:04;;;;;;;2.20;1.60;;;;;;;13.09;54.91;95213.66;4998141;28;20243;-77
2022/05/29 11:54:47;;;;;;;3.00;1.43;;;;;;;13.43;54.50;95208.91;4993620;28;20657;-79
2022/05/29 11:57:25;;;;;;;4.23;1.57;;;;;;;13.62;55.95;95214.66;4995528;28;20273;-79
2022/05/29 12:00:08;;;;;;;6.97;1.83;;;;;;;13.94;55.57;95205.75;4995746;28;20183;-78
2022/05/29 12:02:53;;;;;;;2.63;1.40;;;;;;;14.85;56.48;95202.88;5027955;28;20672;-78
2022/05/29 12:05:31;;;;;;;3.27;1.17;;;;;;;14.54;58.22;95203.06;4994641;28;20290;-79
2022/05/29 12:08:15;;;;;;;2.20;1.20;;;;;;;15.73;51.99;95203.66;4995240;28;20198;-80
2022/05/29 12:10:50;;;;;;;6.33;1.70;;;;;;;14.52;49.61;95202.44;5011244;28;20191;-79
2022/05/29 12:13:16;;;;;;;2.80;1.60;;;;;;;14.35;50.06;95204.38;5012642;28;20179;-79
2022/05/29 12:15:41;;;;;;;3.10;1.50;;;;;;;13.86;51.77;95209.22;4994600;28;20171;-80
2022/05/29 12:18:15;;;;;;;8.40;1.40;;;;;;;13.99;49.43;95200.81;4995173;28;20746;-79
2022/05/29 12:20:49;;;;;;;3.10;1.40;;;;;;;14.17;48.60;95201.31;5012782;28;20174;-79
2022/05/29 12:23:24;;;;;;;3.57;1.30;;;;;;;13.92;51.33;95194.69;5026690;28;20274;-79